createdAt,value
2017-04-13T17:25:20.195Z,31.49
2017-04-13T17:27:13.500Z,31.49
2017-04-13T17:29:37.527Z,31.49
2017-04-13T17:32:02.393Z,32.44
2017-04-13T17:34:26.288Z,32.36
2017-04-13T17:36:51.176Z,32.46
2017-04-13T17:39:06.655Z,32.92
2017-04-13T17:41:30.528Z,33.31
2017-04-13T17:43:54.513Z,32.73
2017-04-13T17:46:18.393Z,33.29
2017-04-13T17:48:33.867Z,33.96
2017-04-13T17:50:35.162Z,34.17
2017-04-13T17:52:58.989Z,34.44
2017-04-13T17:55:22.865Z,34.63
2017-04-13T17:57:46.668Z,34.53
2017-04-13T18:00:11.537Z,34.25
2017-04-13T18:02:35.312Z,35.57
2017-04-13T18:04:59.084Z,35.86
2017-04-13T18:07:23.004Z,36.05
2017-04-13T18:09:46.838Z,35.57
2017-04-13T18:13:46.973Z,36.05
2017-04-13T18:15:53.030Z,35.94
2017-04-13T18:18:24.964Z,36.71
2017-04-13T18:22:08.478Z,36.59
2017-04-13T18:24:34.314Z,36.9
2017-04-13T18:27:05.752Z,36.9
2017-04-13T18:29:36.216Z,36.99
2017-04-13T18:33:36.946Z,37.93
2017-04-13T18:36:00.821Z,37.93
2017-04-13T18:38:11.022Z,38.03
2017-04-13T18:40:34.822Z,38.41
2017-04-13T18:42:58.496Z,38.7
2017-04-13T18:45:28.956Z,39.25
2017-04-13T18:47:52.693Z,39.28
2017-04-13T18:50:18.440Z,39.47
2017-04-13T18:52:43.234Z,38.98
2017-04-13T18:55:07.045Z,39.65
2017-04-13T18:57:30.671Z,40.02
2017-04-13T19:00:02.937Z,40.31
2017-04-13T19:02:13.175Z,40.02
2017-04-13T19:04:37.580Z,40.31
2017-04-13T19:07:04.834Z,40.12
2017-04-13T19:09:20.321Z,40.31
2017-04-13T19:11:44.173Z,40.78
2017-04-13T19:14:07.801Z,41.07
2017-04-13T19:16:31.660Z,41.07
2017-04-13T19:18:55.348Z,41.05
2017-04-13T19:21:19.026Z,41.72
2017-04-13T19:23:42.714Z,41.82
2017-04-13T19:26:06.334Z,41.82
2017-04-13T19:28:30.049Z,41.82
2017-04-13T19:30:53.704Z,41.82
2017-04-13T19:33:17.406Z,42.01
2017-04-13T19:35:41.036Z,41.91
2017-04-13T19:38:04.857Z,42.01
2017-04-13T19:40:28.521Z,43.14
2017-04-13T19:42:52.177Z,42.49
2017-04-13T19:45:15.839Z,42.2
2017-04-13T19:47:39.428Z,42.3
2017-04-13T19:50:03.033Z,42.18
2017-04-13T19:52:26.672Z,42.58
2017-04-13T19:54:50.336Z,42.47
2017-04-13T19:57:13.976Z,42.85
2017-04-13T19:59:37.535Z,42.76
2017-04-13T20:02:01.244Z,42.47
2017-04-13T20:04:24.914Z,42.85
2017-04-13T20:06:48.548Z,43.14
2017-04-13T20:09:12.254Z,43.71
2017-04-13T20:11:35.793Z,43.9
2017-04-13T20:13:59.486Z,44.09
2017-04-13T20:16:23.131Z,44
2017-04-13T20:18:25.659Z,44.09
2017-04-13T20:20:49.311Z,44.19
2017-04-13T20:23:12.898Z,43.43
2017-04-13T20:25:36.590Z,43.14
2017-04-13T20:28:00.225Z,43.62
2017-04-13T20:30:23.932Z,44.09
2017-04-13T20:32:47.591Z,44
2017-04-13T20:35:11.218Z,44.55
2017-04-13T20:37:34.956Z,45.03
2017-04-13T20:39:58.700Z,44.93
2017-04-13T20:42:22.253Z,44.55
2017-04-13T20:44:45.974Z,44.65
2017-04-13T20:47:09.639Z,44.84
2017-04-13T20:49:33.454Z,44.36
2017-04-13T20:51:58.800Z,44.65
2017-04-13T20:54:22.558Z,44.55
2017-04-13T20:56:48.314Z,44.45
2017-04-13T20:59:20.784Z,44.93
2017-04-13T21:01:44.415Z,45.51
2017-04-13T21:04:08.089Z,45.31
2017-04-13T21:06:31.787Z,45.79
2017-04-13T21:08:55.277Z,47.11
2017-04-13T21:11:18.844Z,47.58
2017-04-13T21:13:33.979Z,47.58
2017-04-13T21:15:57.566Z,47.68
2017-04-13T21:18:21.249Z,47.58
2017-04-13T21:20:44.919Z,47.58
2017-04-13T21:23:08.688Z,47.97
2017-04-13T21:25:31.989Z,47.58
2017-04-13T21:27:55.595Z,48.35
2017-04-13T21:30:19.201Z,48.52
2017-04-13T21:32:42.846Z,48.35
2017-04-13T21:35:06.421Z,48.64
2017-04-13T21:37:30.024Z,48.25
2017-04-13T21:39:53.584Z,48.16
2017-04-13T21:42:18.147Z,48.25
2017-04-13T21:44:41.705Z,48.44
2017-04-13T21:47:05.284Z,48.42
2017-04-13T21:49:28.703Z,48.9
2017-04-13T21:51:54.306Z,49.18
2017-04-13T21:54:17.845Z,49.09
2017-04-13T21:56:41.403Z,49.18
2017-04-13T21:59:04.982Z,49.18
2017-04-13T22:01:28.551Z,49.38
2017-04-13T22:03:54.081Z,49.28
2017-04-13T22:06:18.188Z,49.47
2017-04-13T22:08:42.515Z,49.85
2017-04-13T22:10:52.759Z,49.57
2017-04-13T22:12:53.937Z,50.04
2017-04-13T22:15:17.522Z,50.14
2017-04-13T22:17:40.964Z,49.85
2017-04-13T22:20:04.530Z,50.14
2017-04-13T22:22:28.098Z,51.67
2017-04-13T22:24:43.270Z,51.76
2017-04-13T22:27:06.906Z,50.71
2017-04-13T22:29:30.418Z,50.52
2017-04-13T22:31:32.069Z,50.33
2017-04-13T22:33:48.020Z,50.43
2017-04-13T22:36:11.622Z,49.47
2017-04-13T22:38:35.193Z,51.67
2017-04-13T22:40:58.766Z,50.35
2017-04-13T22:43:22.323Z,50.14
2017-04-13T22:45:45.790Z,50.24
2017-04-13T22:48:10.304Z,50.33
2017-04-13T22:50:34.840Z,49.78
2017-04-13T22:52:58.373Z,49.57
2017-04-13T22:55:21.836Z,50.04
2017-04-13T22:57:45.395Z,50.52
2017-04-13T23:00:08.965Z,49.78
2017-04-13T23:02:32.530Z,50.04
2017-04-13T23:04:56.101Z,50.04
2017-04-13T23:07:19.679Z,50.33
2017-04-13T23:09:43.146Z,50.62
2017-04-13T23:11:58.222Z,51.17
2017-04-13T23:14:21.683Z,51.93
2017-04-13T23:16:36.860Z,51.86
2017-04-13T23:19:00.338Z,51.38
2017-04-13T23:21:23.903Z,51.09
2017-04-13T23:23:48.485Z,50.71
2017-04-13T23:25:50.153Z,51.67
2017-04-13T23:28:05.315Z,51.09
2017-04-13T23:30:20.412Z,50.9
2017-04-13T23:32:44.899Z,51.38
2017-04-13T23:35:08.345Z,51.38
2017-04-13T23:37:32.835Z,50.81
2017-04-13T23:39:56.395Z,50.71
2017-04-13T23:41:58.066Z,51.48
2017-04-13T23:44:21.519Z,52.12
2017-04-13T23:46:36.571Z,52.24
2017-04-13T23:48:38.248Z,51.76
2017-04-13T23:51:01.714Z,52.24
2017-04-13T23:53:03.465Z,51.67
2017-04-13T23:55:27.038Z,52.05
2017-04-13T23:57:36.819Z,51.09
